createdAt,value
2022-09-23T00:01:19.772Z,61.90
2022-09-23T00:03:47.568Z,61.80
2022-09-23T00:06:20.371Z,62.00
2022-09-23T00:08:49.826Z,62.10
2022-09-23T00:11:22.809Z,61.90
2022-09-23T00:13:53.859Z,62.10
2022-09-23T00:16:28.621Z,62.10
2022-09-23T00:18:55.917Z,62.20
2022-09-23T00:21:23.716Z,62.10
2022-09-23T00:23:51.875Z,62.00
2022-09-23T00:26:21.288Z,62.00
2022-09-23T00:28:49.381Z,62.20
2022-09-23T00:31:23.720Z,62.70
2022-09-23T00:33:56.850Z,62.50
2022-09-23T00:36:25.340Z,62.80
2022-09-23T00:38:53.519Z,62.90
2022-09-23T00:41:21.500Z,63.00
2022-09-23T00:43:52.957Z,62.70
2022-09-23T00:46:23.180Z,63.00
2022-09-23T00:48:56.087Z,62.90
2022-09-23T00:51:27.117Z,63.00
2022-09-23T00:53:54.450Z,63.10
2022-09-23T00:56:24.508Z,63.00
2022-09-23T00:58:52.724Z,63.30
2022-09-23T01:01:21.275Z,62.90
2022-09-23T01:03:50.320Z,62.80
2022-09-23T01:06:17.970Z,63.10
2022-09-23T01:08:47.311Z,63.00
2022-09-23T01:11:42.344Z,63.00
2022-09-23T01:14:35.413Z,63.20
2022-09-23T01:17:21.842Z,63.40
2022-09-23T01:20:04.153Z,63.60
2022-09-23T01:22:37.150Z,63.70
2022-09-23T01:25:36.535Z,63.60
2022-09-23T01:28:33.436Z,63.40
2022-09-23T01:31:13.800Z,63.10
2022-09-23T01:34:15.209Z,63.10
2022-09-23T01:37:21.000Z,63.10
2022-09-23T01:40:20.984Z,63.10
2022-09-23T01:42:52.307Z,62.80
2022-09-23T01:45:35.721Z,62.80
2022-09-23T01:48:21.033Z,62.70
2022-09-23T01:51:14.212Z,62.80
2022-09-23T01:54:07.382Z,62.80
2022-09-23T01:56:58.924Z,63.20
2022-09-23T01:59:43.700Z,63.00
2022-09-23T02:02:23.736Z,63.10
2022-09-23T02:05:04.345Z,63.00
2022-09-23T02:08:01.666Z,62.90
2022-09-23T02:10:42.241Z,63.10
2022-09-23T02:13:20.692Z,63.20
2022-09-23T02:15:52.022Z,63.10
2022-09-23T02:18:25.496Z,63.20
2022-09-23T02:20:59.153Z,63.50
2022-09-23T02:23:34.095Z,63.60
2022-09-23T02:26:12.245Z,63.80
2022-09-23T02:29:02.482Z,63.70
2022-09-23T02:32:01.703Z,63.70
2022-09-23T02:34:42.704Z,63.40
2022-09-23T02:37:24.789Z,63.80
2022-09-23T02:40:01.975Z,64.00
2022-09-23T02:42:42.106Z,64.20
2022-09-23T02:45:09.647Z,64.40
2022-09-23T02:47:40.791Z,64.60
2022-09-23T02:50:09.587Z,64.90
2022-09-23T02:52:38.822Z,65.50
2022-09-23T02:55:09.221Z,66.20
2022-09-23T02:57:36.481Z,66.70
2022-09-23T03:00:05.298Z,67.10
2022-09-23T03:03:13.063Z,67.30
2022-09-23T03:05:50.500Z,67.40
2022-09-23T03:08:37.303Z,67.40
2022-09-23T03:11:11.312Z,67.50
2022-09-23T03:14:00.013Z,67.40
2022-09-23T03:16:50.487Z,67.20
2022-09-23T03:19:26.653Z,67.10
2022-09-23T03:22:08.658Z,67.30
2022-09-23T03:24:38.332Z,67.80
2022-09-23T03:27:13.932Z,67.40
2022-09-23T03:29:49.035Z,67.00
2022-09-23T03:32:20.442Z,67.00
2022-09-23T03:34:52.391Z,66.90
2022-09-23T03:37:54.620Z,66.80
2022-09-23T03:40:33.672Z,66.70
2022-09-23T03:43:02.747Z,66.60
2022-09-23T03:45:34.158Z,66.60
2022-09-23T03:48:01.921Z,66.60
2022-09-23T03:50:29.655Z,66.50
2022-09-23T03:52:56.964Z,66.00
2022-09-23T03:55:24.138Z,65.80
2022-09-23T03:57:51.543Z,66.00
2022-09-23T04:00:18.815Z,66.10
2022-09-23T04:02:46.037Z,66.40
2022-09-23T04:05:13.869Z,66.50
2022-09-23T04:07:41.504Z,66.70
2022-09-23T04:10:10.123Z,66.60
2022-09-23T04:12:37.912Z,66.80
2022-09-23T04:15:05.824Z,66.80
2022-09-23T04:17:32.983Z,66.70
2022-09-23T04:20:00.225Z,66.90
2022-09-23T04:22:27.341Z,67.00
2022-09-23T04:24:54.914Z,67.00
2022-09-23T04:27:22.254Z,67.30
2022-09-23T04:29:49.392Z,67.40
2022-09-23T04:32:16.538Z,67.80
2022-09-23T04:34:43.808Z,67.80
2022-09-23T04:37:10.892Z,67.90
2022-09-23T04:39:38.199Z,68.10
2022-09-23T04:42:05.478Z,68.40
2022-09-23T04:44:33.180Z,68.40
2022-09-23T04:47:00.362Z,68.30
2022-09-23T04:49:27.557Z,68.20
2022-09-23T04:51:55.312Z,68.30
2022-09-23T04:54:22.492Z,68.50
2022-09-23T04:56:49.612Z,68.50
2022-09-23T04:59:16.859Z,68.60
2022-09-23T05:01:44.455Z,68.20
2022-09-23T05:04:14.047Z,68.40
2022-09-23T05:06:44.082Z,68.10
2022-09-23T05:09:17.292Z,67.70
2022-09-23T05:11:45.686Z,67.80
2022-09-23T05:14:13.241Z,67.90
2022-09-23T05:16:40.924Z,68.00
2022-09-23T05:19:08.317Z,67.60
2022-09-23T05:21:36.630Z,67.40
2022-09-23T05:24:04.032Z,67.90
2022-09-23T05:26:32.355Z,68.90
2022-09-23T05:29:00.596Z,71.60
2022-09-23T05:31:29.689Z,76.00
2022-09-23T05:33:59.458Z,81.50
2022-09-23T05:36:27.944Z,85.90
2022-09-23T05:38:57.499Z,86.40
2022-09-23T05:41:25.920Z,86.30
2022-09-23T05:43:57.173Z,87.30
2022-09-23T05:46:29.730Z,86.20
2022-09-23T05:49:02.142Z,86.30
2022-09-23T05:51:31.350Z,86.30
2022-09-23T05:53:59.942Z,86.80
2022-09-23T05:56:30.539Z,89.00
2022-09-23T05:59:00.419Z,89.10
2022-09-23T06:01:32.406Z,89.70
2022-09-23T06:04:01.288Z,92.20
2022-09-23T06:06:37.687Z,90.20
2022-09-23T06:09:06.927Z,90.10
2022-09-23T06:11:36.397Z,91.20
2022-09-23T06:14:04.569Z,91.30
2022-09-23T06:16:36.757Z,91.40
2022-09-23T06:19:06.701Z,91.80
2022-09-23T06:21:36.998Z,93.10
2022-09-23T06:24:05.412Z,91.90
2022-09-23T06:26:35.376Z,93.80
2022-09-23T06:29:08.367Z,94.30
2022-09-23T06:31:35.959Z,94.60
2022-09-23T06:34:16.563Z,92.00
2022-09-23T06:36:46.207Z,89.30
2022-09-23T06:39:17.080Z,89.50
2022-09-23T06:41:45.439Z,88.10
2022-09-23T06:44:14.316Z,85.90
2022-09-23T06:46:41.970Z,84.50
2022-09-23T06:49:09.258Z,81.10
2022-09-23T06:51:36.860Z,78.80
2022-09-23T06:54:04.228Z,77.80
2022-09-23T06:56:34.910Z,78.10
2022-09-23T06:59:07.325Z,76.80
2022-09-23T07:01:34.991Z,75.20
2022-09-23T07:04:02.423Z,74.40
2022-09-23T07:06:29.539Z,74.90
2022-09-23T07:08:56.858Z,73.80
2022-09-23T07:11:24.055Z,72.60
2022-09-23T07:13:51.377Z,73.30
2022-09-23T07:16:18.848Z,73.10
2022-09-23T07:18:46.263Z,73.40
2022-09-23T07:21:16.243Z,71.90
2022-09-23T07:23:44.574Z,70.30
2022-09-23T07:26:12.270Z,70.20
2022-09-23T07:28:40.256Z,70.70
2022-09-23T07:31:15.182Z,70.10
2022-09-23T07:33:44.394Z,71.00
2022-09-23T07:36:14.469Z,71.10
2022-09-23T07:38:45.401Z,71.50
2022-09-23T07:41:17.999Z,70.60
2022-09-23T07:43:46.250Z,70.10
2022-09-23T07:46:17.633Z,69.70
2022-09-23T07:48:46.691Z,69.50
2022-09-23T07:51:18.301Z,67.90
2022-09-23T07:53:48.865Z,67.60
2022-09-23T07:56:17.443Z,65.20
2022-09-23T07:58:44.902Z,65.00
2022-09-23T08:01:13.497Z,65.30
2022-09-23T08:03:40.950Z,65.60
2022-09-23T08:06:10.498Z,65.80
2022-09-23T08:08:40.513Z,64.30
2022-09-23T08:11:10.454Z,64.80
2022-09-23T08:13:38.257Z,65.60
2022-09-23T08:16:05.791Z,65.40
2022-09-23T08:18:34.060Z,64.80
2022-09-23T08:21:01.489Z,64.30
2022-09-23T08:23:33.528Z,64.50
2022-09-23T08:26:03.144Z,64.10
2022-09-23T08:28:32.045Z,64.80
2022-09-23T08:30:59.740Z,64.10
2022-09-23T08:33:27.133Z,63.20
2022-09-23T08:36:00.382Z,63.20
2022-09-23T08:38:28.360Z,61.80
2022-09-23T08:41:20.593Z,60.10
2022-09-23T08:43:58.559Z,59.70
2022-09-23T08:46:31.923Z,58.50
2022-09-23T08:49:01.181Z,58.30
2022-09-23T08:51:41.384Z,57.20
2022-09-23T08:54:13.205Z,57.40
2022-09-23T08:56:42.844Z,56.70
2022-09-23T08:59:26.965Z,57.30
2022-09-23T09:02:02.595Z,57.90
2022-09-23T09:04:35.939Z,57.10
2022-09-23T09:07:35.292Z,56.00
2022-09-23T09:10:06.839Z,55.90
2022-09-23T09:13:15.882Z,56.00
2022-09-23T09:15:56.725Z,55.90
2022-09-23T09:18:25.875Z,54.60
2022-09-23T09:21:14.895Z,54.40
2022-09-23T09:23:52.429Z,54.90
2022-09-23T09:26:35.567Z,54.20
2022-09-23T09:29:35.358Z,55.10
2022-09-23T09:32:24.007Z,54.50
2022-09-23T09:34:57.192Z,53.90
2022-09-23T09:37:47.842Z,53.60
2022-09-23T09:40:17.342Z,53.40
2022-09-23T09:42:50.141Z,53.30
2022-09-23T09:45:26.750Z,53.00
2022-09-23T09:48:23.915Z,52.80
2022-09-23T09:50:54.168Z,52.30
2022-09-23T09:53:25.723Z,50.60
2022-09-23T09:56:14.947Z,50.80
2022-09-23T09:58:59.140Z,50.60
2022-09-23T10:01:30.206Z,49.30
2022-09-23T10:04:19.741Z,48.80
2022-09-23T10:07:06.928Z,48.90
2022-09-23T10:09:37.602Z,48.30
2022-09-23T10:12:15.644Z,48.40
2022-09-23T10:14:43.436Z,47.80
2022-09-23T10:17:20.956Z,47.70
2022-09-23T10:19:57.319Z,48.10
2022-09-23T10:22:33.897Z,48.40
2022-09-23T10:25:07.660Z,48.70
2022-09-23T10:27:36.529Z,48.20
2022-09-23T10:30:24.812Z,49.10
2022-09-23T10:32:55.088Z,48.70
2022-09-23T10:35:24.721Z,47.50
2022-09-23T10:37:57.158Z,47.70
2022-09-23T10:40:51.091Z,48.20
2022-09-23T10:43:43.010Z,47.10
2022-09-23T10:46:39.386Z,47.80
2022-09-23T10:49:31.711Z,47.90
2022-09-23T10:52:11.393Z,45.60
2022-09-23T10:55:23.534Z,45.40
2022-09-23T10:57:57.932Z,46.10
2022-09-23T11:00:46.436Z,44.60
2022-09-23T11:03:28.981Z,43.20
2022-09-23T11:06:26.661Z,43.10
2022-09-23T11:09:14.930Z,42.80
2022-09-23T11:12:03.823Z,41.60
2022-09-23T11:14:42.151Z,42.30
2022-09-23T11:17:35.817Z,41.80
2022-09-23T11:20:41.504Z,41.60
2022-09-23T11:23:28.613Z,40.70
2022-09-23T11:26:41.708Z,39.00
2022-09-23T11:29:31.435Z,38.70
2022-09-23T11:32:20.915Z,38.60
2022-09-23T11:35:02.762Z,37.20
2022-09-23T11:37:37.673Z,37.20
2022-09-23T11:40:24.333Z,37.20
2022-09-23T11:42:58.341Z,37.10
2022-09-23T11:45:34.943Z,37.80
2022-09-23T11:48:19.114Z,37.30
2022-09-23T11:50:58.888Z,36.10
2022-09-23T11:53:42.882Z,36.10
2022-09-23T11:56:46.863Z,36.40
2022-09-23T11:59:40.163Z,36.60
2022-09-23T12:02:33.821Z,35.40
2022-09-23T12:05:16.756Z,34.30
2022-09-23T12:07:56.954Z,34.90
2022-09-23T12:11:06.234Z,36.40
2022-09-23T12:13:45.163Z,37.40
2022-09-23T12:16:49.501Z,37.70
2022-09-23T12:20:11.192Z,37.70
2022-09-23T12:23:20.648Z,38.10
2022-09-23T12:26:02.877Z,38.50
2022-09-23T12:28:41.857Z,39.20
2022-09-23T12:31:16.884Z,38.60
2022-09-23T12:33:54.882Z,37.60
2022-09-23T12:36:32.830Z,37.10
2022-09-23T12:39:18.047Z,36.70
2022-09-23T12:41:50.815Z,36.70
2022-09-23T12:44:43.009Z,38.10
2022-09-23T12:47:25.210Z,38.80
2022-09-23T12:50:01.091Z,39.90
2022-09-23T12:52:33.609Z,41.30
2022-09-23T12:55:24.618Z,40.60
2022-09-23T12:57:51.973Z,39.70
2022-09-23T13:00:29.823Z,39.20
2022-09-23T13:03:21.085Z,38.80
2022-09-23T13:06:22.834Z,38.60
2022-09-23T13:08:50.436Z,38.60
2022-09-23T13:11:29.741Z,38.30
2022-09-23T13:14:04.311Z,38.60
2022-09-23T13:19:28.020Z,40.40
2022-09-23T13:22:09.786Z,41.40
2022-09-23T13:24:49.522Z,42.80
2022-09-23T13:27:38.503Z,43.60
2022-09-23T13:30:14.052Z,44.60
2022-09-23T13:33:22.379Z,43.50
2022-09-23T13:35:51.665Z,41.90
2022-09-23T13:38:26.485Z,40.60
2022-09-23T13:41:10.856Z,41.70
2022-09-23T13:43:43.277Z,41.70
2022-09-23T13:46:14.569Z,42.20
2022-09-23T13:48:45.501Z,43.90
2022-09-23T13:51:21.959Z,44.20
2022-09-23T13:53:57.996Z,44.40
2022-09-23T13:56:28.242Z,44.40
2022-09-23T13:59:12.949Z,44.60
2022-09-23T14:01:40.405Z,44.50
2022-09-23T14:04:26.301Z,43.90
2022-09-23T14:06:54.797Z,44.00
2022-09-23T14:09:28.189Z,44.50
2022-09-23T14:11:58.001Z,44.80
2022-09-23T14:14:26.508Z,44.50
2022-09-23T14:17:01.415Z,43.80
2022-09-23T14:19:28.789Z,43.50
2022-09-23T14:21:57.011Z,43.60
2022-09-23T14:24:34.325Z,43.40
2022-09-23T14:27:18.305Z,43.90
2022-09-23T14:29:48.214Z,44.30
2022-09-23T14:32:26.282Z,44.50
2022-09-23T14:35:08.325Z,44.20
2022-09-23T14:37:57.462Z,45.10
2022-09-23T14:40:42.422Z,45.80
2022-09-23T14:43:28.484Z,46.10
2022-09-23T14:45:59.590Z,45.90
2022-09-23T14:48:35.784Z,46.10
2022-09-23T14:51:10.948Z,46.40
2022-09-23T14:53:49.273Z,46.80
2022-09-23T14:56:22.814Z,47.40
2022-09-23T14:58:57.778Z,46.80
2022-09-23T15:01:41.845Z,46.80
2022-09-23T15:04:16.568Z,46.50
2022-09-23T15:06:54.885Z,46.50
2022-09-23T15:09:33.840Z,46.70
2022-09-23T15:12:05.706Z,46.50
2022-09-23T15:14:39.418Z,46.90
2022-09-23T15:17:38.822Z,47.50
2022-09-23T15:20:20.196Z,47.60
2022-09-23T15:22:50.382Z,48.50
2022-09-23T15:25:36.190Z,48.70
2022-09-23T15:28:11.899Z,49.40
2022-09-23T15:33:32.944Z,48.60
2022-09-23T15:36:00.489Z,48.50
2022-09-23T15:38:27.981Z,48.70
2022-09-23T15:40:55.955Z,48.50
2022-09-23T15:43:26.810Z,49.00
2022-09-23T15:46:06.979Z,48.90
2022-09-23T15:48:40.537Z,49.10
2022-09-23T15:51:10.038Z,49.30
2022-09-23T15:53:40.168Z,49.50
2022-09-23T15:56:07.425Z,49.80
2022-09-23T15:58:34.617Z,49.50
2022-09-23T16:01:02.452Z,49.40
2022-09-23T16:03:29.658Z,49.30
2022-09-23T16:06:02.592Z,49.60
2022-09-23T16:08:32.461Z,49.70
2022-09-23T16:10:59.752Z,50.00
2022-09-23T16:13:26.952Z,50.00
2022-09-23T16:15:54.233Z,49.50
2022-09-23T16:18:21.425Z,49.80
2022-09-23T16:20:51.488Z,49.90
2022-09-23T16:23:37.322Z,50.00
2022-09-23T16:26:08.940Z,50.10
2022-09-23T16:28:36.282Z,50.50
2022-09-23T16:31:03.583Z,50.70
2022-09-23T16:33:30.799Z,51.00
2022-09-23T16:36:00.929Z,51.50
2022-09-23T16:38:29.157Z,51.40
2022-09-23T16:41:00.755Z,51.60
2022-09-23T16:43:35.189Z,51.80
2022-09-23T16:46:02.445Z,51.70
2022-09-23T16:48:29.673Z,52.10
2022-09-23T16:50:57.280Z,52.00
2022-09-23T16:53:26.614Z,52.40
2022-09-23T16:55:54.221Z,52.50
2022-09-23T16:58:21.504Z,52.80
2022-09-23T17:01:08.311Z,52.90
2022-09-23T17:03:42.879Z,53.00
2022-09-23T17:06:14.484Z,53.20
2022-09-23T17:08:42.771Z,53.10
2022-09-23T17:11:11.013Z,53.30
2022-09-23T17:13:41.149Z,53.00
2022-09-23T17:16:08.987Z,53.30
2022-09-23T17:18:36.164Z,53.70
2022-09-23T17:21:06.655Z,53.90
2022-09-23T17:23:35.763Z,53.90
2022-09-23T17:26:05.594Z,53.70
2022-09-23T17:28:32.992Z,54.10
2022-09-23T17:31:02.751Z,54.20
2022-09-23T17:33:32.067Z,54.20
2022-09-23T17:36:01.696Z,54.50
2022-09-23T17:38:29.741Z,55.00
2022-09-23T17:40:59.612Z,54.60
2022-09-23T17:43:32.596Z,54.60
2022-09-23T17:46:06.726Z,54.80
2022-09-23T17:48:35.932Z,54.50
2022-09-23T17:51:06.401Z,54.40
2022-09-23T17:53:37.109Z,54.40
2022-09-23T17:56:25.559Z,54.50
2022-09-23T17:58:53.713Z,55.00
2022-09-23T18:01:23.945Z,54.90
2022-09-23T18:04:00.216Z,54.90
2022-09-23T18:06:31.861Z,54.90
2022-09-23T18:09:06.835Z,54.80
2022-09-23T18:11:37.204Z,53.80
2022-09-23T18:14:07.558Z,53.60
2022-09-23T18:16:37.034Z,53.80
2022-09-23T18:19:06.006Z,54.10
2022-09-23T18:21:35.632Z,53.80
2022-09-23T18:24:28.185Z,54.50
2022-09-23T18:26:50.882Z,54.90
2022-09-23T18:29:18.632Z,53.80
2022-09-23T18:31:47.475Z,53.70
2022-09-23T18:34:18.708Z,52.20
2022-09-23T18:36:46.132Z,51.60
2022-09-23T18:39:13.367Z,51.60
2022-09-23T18:41:41.358Z,51.80
2022-09-23T18:44:08.997Z,52.00
2022-09-23T18:46:36.626Z,52.30
2022-09-23T18:49:22.448Z,52.70
2022-09-23T18:51:57.529Z,53.00
2022-09-23T18:54:27.752Z,52.80
2022-09-23T18:56:56.121Z,52.80
2022-09-23T18:59:26.341Z,53.10
2022-09-23T19:01:56.637Z,53.60
2022-09-23T19:04:25.620Z,53.50
2022-09-23T19:06:54.865Z,53.60
2022-09-23T19:09:22.115Z,53.80
2022-09-23T19:11:53.555Z,54.10
2022-09-23T19:14:20.908Z,54.60
2022-09-23T19:16:51.098Z,54.90
2022-09-23T19:19:18.549Z,55.40
2022-09-23T19:21:45.750Z,55.20
2022-09-23T19:24:16.071Z,54.20
2022-09-23T19:26:44.326Z,53.70
2022-09-23T19:29:19.676Z,53.90
2022-09-23T19:31:47.639Z,54.10
2022-09-23T19:34:22.852Z,54.40
2022-09-23T19:36:50.244Z,54.50
2022-09-23T19:39:30.665Z,54.20
2022-09-23T19:41:59.142Z,53.70
2022-09-23T19:44:27.094Z,53.90
2022-09-23T19:46:57.085Z,53.70
2022-09-23T19:49:25.651Z,53.90
2022-09-23T19:51:55.746Z,53.90
2022-09-23T19:54:26.375Z,53.90
2022-09-23T19:56:53.660Z,53.00
2022-09-23T19:59:20.981Z,53.20
2022-09-23T20:01:48.780Z,52.60
2022-09-23T20:04:16.956Z,52.40
2022-09-23T20:06:45.991Z,52.40
2022-09-23T20:09:13.440Z,52.70
2022-09-23T20:11:43.134Z,52.70
2022-09-23T20:14:10.899Z,51.90
2022-09-23T20:16:38.204Z,51.30
2022-09-23T20:19:05.947Z,51.00
2022-09-23T20:21:34.388Z,50.20
2022-09-23T20:24:02.274Z,50.00
2022-09-23T20:26:47.775Z,50.10
2022-09-23T20:29:15.315Z,50.10
2022-09-23T20:31:42.776Z,48.80
2022-09-23T20:34:10.815Z,48.10
2022-09-23T20:36:39.659Z,48.30
2022-09-23T20:39:07.299Z,48.40
2022-09-23T20:41:38.190Z,48.50
2022-09-23T20:44:11.842Z,48.70
2022-09-23T20:46:39.268Z,48.90
2022-09-23T20:49:08.884Z,49.00
2022-09-23T20:51:37.221Z,49.00
2022-09-23T20:54:05.160Z,49.20
2022-09-23T20:56:32.422Z,50.20
2022-09-23T20:59:01.433Z,50.10
2022-09-23T21:01:29.320Z,49.80
2022-09-23T21:03:56.529Z,49.80
2022-09-23T21:06:25.229Z,49.70
2022-09-23T21:08:54.830Z,49.90
2022-09-23T21:11:22.662Z,50.10
2022-09-23T21:13:51.504Z,50.00
2022-09-23T21:16:21.504Z,49.90
2022-09-23T21:18:50.618Z,50.20
2022-09-23T21:21:19.832Z,50.30
2022-09-23T21:23:47.897Z,50.00
2022-09-23T21:26:24.087Z,50.20
2022-09-23T21:28:54.542Z,50.00
2022-09-23T21:31:41.446Z,49.60
2022-09-23T21:34:11.294Z,49.70
2022-09-23T21:36:44.716Z,49.40
2022-09-23T21:39:12.733Z,49.20
2022-09-23T21:41:40.257Z,49.20
2022-09-23T21:44:08.594Z,49.30
2022-09-23T21:46:36.811Z,49.10
2022-09-23T21:49:04.513Z,49.10
2022-09-23T21:51:41.300Z,48.80
2022-09-23T21:54:14.387Z,49.00
2022-09-23T21:56:42.610Z,49.10
2022-09-23T21:59:10.541Z,48.90
2022-09-23T22:01:41.516Z,48.90
2022-09-23T22:04:14.905Z,48.90
2022-09-23T22:06:42.409Z,48.70
2022-09-23T22:09:13.634Z,49.00
2022-09-23T22:11:59.903Z,49.00
2022-09-23T22:14:27.784Z,49.20
2022-09-23T22:16:59.758Z,49.30
2022-09-23T22:19:44.288Z,49.10
2022-09-23T22:22:15.961Z,49.20
2022-09-23T22:24:44.801Z,49.00
2022-09-23T22:27:14.450Z,49.40
2022-09-23T22:30:00.360Z,49.10
2022-09-23T22:32:43.644Z,49.30
2022-09-23T22:35:18.920Z,49.60
2022-09-23T22:37:46.343Z,49.40
2022-09-23T22:40:15.665Z,49.30
2022-09-23T22:42:43.445Z,49.30
2022-09-23T22:45:12.231Z,49.30
2022-09-23T22:47:41.431Z,49.20
2022-09-23T22:50:09.919Z,49.00
2022-09-23T22:52:38.003Z,49.20
2022-09-23T22:55:08.163Z,49.40
2022-09-23T22:57:36.264Z,49.20
2022-09-23T23:00:08.920Z,49.40
2022-09-23T23:02:36.884Z,49.20
2022-09-23T23:05:04.322Z,49.40
2022-09-23T23:07:32.185Z,49.40
2022-09-23T23:09:59.398Z,49.30
2022-09-23T23:12:26.641Z,49.30
2022-09-23T23:14:53.873Z,49.20
2022-09-23T23:17:21.985Z,49.30
2022-09-23T23:19:50.705Z,49.20
2022-09-23T23:22:18.714Z,49.00
2022-09-23T23:24:46.058Z,49.10
2022-09-23T23:27:13.300Z,49.60
2022-09-23T23:29:40.444Z,49.30
2022-09-23T23:32:09.849Z,49.20
2022-09-23T23:34:37.052Z,49.10
2022-09-23T23:37:04.235Z,49.00
2022-09-23T23:39:31.492Z,49.10
2022-09-23T23:41:58.670Z,49.30
2022-09-23T23:44:27.003Z,49.30
2022-09-23T23:46:55.311Z,49.40
2022-09-23T23:49:22.692Z,49.50
2022-09-23T23:51:50.368Z,49.40
2022-09-23T23:54:17.592Z,49.50
2022-09-23T23:56:44.835Z,49.70
2022-09-23T23:59:12.289Z,49.80
